createdAt,value
2018-12-24T00:00:45.415Z,0.00
2018-12-24T00:01:45.550Z,0.00
2018-12-24T00:02:45.487Z,0.00
2018-12-24T00:03:45.525Z,0.00
2018-12-24T00:04:45.568Z,0.00
2018-12-24T00:05:45.645Z,0.00
2018-12-24T00:06:45.634Z,0.00
2018-12-24T00:07:45.670Z,0.00
2018-12-24T00:08:45.707Z,0.00
2018-12-24T00:09:45.743Z,0.00
2018-12-24T00:10:45.778Z,0.00
2018-12-24T00:11:45.815Z,0.00
2018-12-24T00:12:45.852Z,0.00
2018-12-24T00:13:45.891Z,0.00
2018-12-24T00:14:45.936Z,0.00
2018-12-24T00:15:45.964Z,0.00
2018-12-24T00:16:45.998Z,0.00
2018-12-24T00:17:46.034Z,0.00
2018-12-24T00:18:46.076Z,0.00
2018-12-24T00:19:46.116Z,0.00
2018-12-24T00:20:46.152Z,0.00
2018-12-24T00:21:46.180Z,0.00
2018-12-24T00:22:46.217Z,0.00
2018-12-24T00:23:46.254Z,0.00
2018-12-24T00:24:46.289Z,0.00
2018-12-24T00:25:46.325Z,0.00
2018-12-24T00:26:46.369Z,0.00
2018-12-24T00:27:46.398Z,0.00
2018-12-24T00:28:46.434Z,0.00
2018-12-24T00:29:46.471Z,0.00
2018-12-24T00:30:46.507Z,0.00
2018-12-24T00:31:46.547Z,0.00
2018-12-24T00:32:46.582Z,0.00
2018-12-24T00:33:46.617Z,0.00
2018-12-24T00:34:46.660Z,0.00
2018-12-24T00:35:46.691Z,0.00
2018-12-24T00:36:46.727Z,0.00
2018-12-24T00:37:46.769Z,0.00
2018-12-24T00:38:46.800Z,0.00
2018-12-24T00:39:46.836Z,0.00
2018-12-24T00:40:46.872Z,0.00
2018-12-24T00:41:46.908Z,0.00
2018-12-24T00:42:46.953Z,0.00
2018-12-24T00:43:46.992Z,0.00
2018-12-24T00:44:47.027Z,0.00
2018-12-24T00:45:47.057Z,0.00
2018-12-24T00:46:47.101Z,0.00
2018-12-24T00:47:47.130Z,0.00
2018-12-24T00:48:47.166Z,0.00
2018-12-24T00:49:47.201Z,0.00
2018-12-24T00:50:47.238Z,0.00
2018-12-24T00:51:47.275Z,0.00
2018-12-24T00:52:47.312Z,0.00
2018-12-24T00:53:47.347Z,0.00
2018-12-24T00:54:47.381Z,0.00
2018-12-24T00:55:47.419Z,0.00
2018-12-24T00:56:47.472Z,0.00
2018-12-24T00:57:47.491Z,0.00
2018-12-24T00:58:47.528Z,0.00
2018-12-24T00:59:47.564Z,0.00
2018-12-24T01:00:47.607Z,0.00
2018-12-24T01:01:48.929Z,0.00
2018-12-24T01:02:47.672Z,0.00
2018-12-24T01:03:47.709Z,0.00
2018-12-24T01:04:47.745Z,0.00
2018-12-24T01:05:47.781Z,0.00
2018-12-24T01:06:47.819Z,0.00
2018-12-24T01:07:47.854Z,0.00
2018-12-24T01:08:47.890Z,0.00
2018-12-24T01:09:47.931Z,0.00
2018-12-24T01:10:47.964Z,0.00
2018-12-24T01:11:48.001Z,0.00
2018-12-24T01:12:48.037Z,0.00
2018-12-24T01:13:48.074Z,0.00
2018-12-24T01:14:48.112Z,0.00
2018-12-24T01:15:48.163Z,0.00
2018-12-24T01:16:48.181Z,0.00
2018-12-24T01:17:48.218Z,0.00
2018-12-24T01:18:48.255Z,0.00
2018-12-24T01:19:48.300Z,0.00
2018-12-24T01:20:48.327Z,0.00
2018-12-24T01:21:48.366Z,0.00
2018-12-24T01:22:48.401Z,0.00
2018-12-24T01:23:48.437Z,0.00
2018-12-24T01:24:48.536Z,0.00
2018-12-24T01:25:48.510Z,0.00
2018-12-24T01:26:48.548Z,0.00
2018-12-24T01:27:48.583Z,0.00
2018-12-24T01:28:48.618Z,0.00
2018-12-24T01:29:48.655Z,0.00
2018-12-24T01:30:48.693Z,0.00
2018-12-24T01:31:48.728Z,0.00
2018-12-24T01:32:48.764Z,0.00
2018-12-24T01:33:48.808Z,0.00
2018-12-24T01:34:48.837Z,0.00
2018-12-24T01:35:48.873Z,0.00
2018-12-24T01:36:48.907Z,0.00
2018-12-24T01:37:48.945Z,0.00
2018-12-24T01:38:49.083Z,0.00
2018-12-24T01:39:49.020Z,0.00
2018-12-24T01:40:49.063Z,0.00
2018-12-24T01:41:49.091Z,0.00
2018-12-24T01:42:49.128Z,0.00
2018-12-24T01:43:49.165Z,0.00
2018-12-24T01:44:49.199Z,0.00
2018-12-24T01:45:49.234Z,0.00
2018-12-24T01:46:49.273Z,0.00
2018-12-24T01:47:49.308Z,0.00
2018-12-24T01:48:49.346Z,0.00
2018-12-24T01:49:49.384Z,0.00
2018-12-24T01:50:49.419Z,0.00
2018-12-24T01:51:49.458Z,0.00
2018-12-24T01:52:49.498Z,0.00
2018-12-24T01:53:49.529Z,0.00
2018-12-24T01:54:49.564Z,0.00
2018-12-24T01:55:49.602Z,0.00
2018-12-24T01:56:49.641Z,0.00
2018-12-24T01:57:49.684Z,0.00
2018-12-24T01:58:49.709Z,0.00
2018-12-24T01:59:49.744Z,0.00
2018-12-24T02:00:49.779Z,0.00
2018-12-24T02:01:49.827Z,0.00
2018-12-24T02:02:49.852Z,0.00
2018-12-24T02:03:49.889Z,0.00
2018-12-24T02:04:49.924Z,0.00
2018-12-24T02:05:49.960Z,0.00
2018-12-24T02:06:49.997Z,0.00
2018-12-24T02:07:50.033Z,0.00
2018-12-24T02:08:50.068Z,0.00
2018-12-24T02:09:50.106Z,0.00
2018-12-24T02:10:50.143Z,0.00
2018-12-24T02:11:50.187Z,0.00
2018-12-24T02:12:50.214Z,0.00
2018-12-24T02:13:50.249Z,0.00
2018-12-24T02:14:50.287Z,0.00
2018-12-24T02:15:50.334Z,0.00
2018-12-24T02:16:50.363Z,0.00
2018-12-24T02:17:50.402Z,0.00
2018-12-24T02:18:50.435Z,0.00
2018-12-24T02:19:50.469Z,0.00
2018-12-24T02:20:50.504Z,0.00
2018-12-24T02:21:50.539Z,0.00
2018-12-24T02:22:50.578Z,0.00
2018-12-24T02:23:50.621Z,0.00
2018-12-24T02:24:50.650Z,0.00
2018-12-24T02:25:50.686Z,0.00
2018-12-24T02:26:50.725Z,0.00
2018-12-24T02:27:50.763Z,0.00
2018-12-24T02:28:50.894Z,0.00
2018-12-24T02:29:50.839Z,0.00
2018-12-24T02:30:50.867Z,0.00
2018-12-24T02:31:50.905Z,0.00
2018-12-24T02:32:50.947Z,0.00
2018-12-24T02:33:50.974Z,0.00
2018-12-24T02:34:51.013Z,0.00
2018-12-24T02:35:51.201Z,0.00
2018-12-24T02:36:51.083Z,0.00
2018-12-24T02:37:51.121Z,0.00
2018-12-24T02:38:51.157Z,0.00
2018-12-24T02:39:51.192Z,0.00
2018-12-24T02:40:51.329Z,0.00
2018-12-24T02:41:51.265Z,0.00
2018-12-24T02:42:52.519Z,0.00
2018-12-24T02:43:51.339Z,0.00
2018-12-24T02:44:51.374Z,0.00
2018-12-24T02:45:51.413Z,0.00
2018-12-24T02:46:51.478Z,0.00
2018-12-24T02:47:51.483Z,0.00
2018-12-24T02:48:51.520Z,0.00
2018-12-24T02:49:51.555Z,0.00
2018-12-24T02:50:51.593Z,0.00
2018-12-24T02:51:51.628Z,0.00
2018-12-24T02:52:51.668Z,0.00
2018-12-24T02:53:51.709Z,0.00
2018-12-24T02:54:51.739Z,0.00
2018-12-24T02:55:51.774Z,0.00
2018-12-24T02:56:51.809Z,0.00
2018-12-24T02:57:51.847Z,0.00
2018-12-24T02:58:51.883Z,0.00
2018-12-24T02:59:51.918Z,0.00
2018-12-24T03:00:51.953Z,0.00
2018-12-24T03:01:52.002Z,0.00
2018-12-24T03:02:52.026Z,0.00
2018-12-24T03:03:52.062Z,0.00
2018-12-24T03:04:52.107Z,0.00
2018-12-24T03:05:52.138Z,0.00
2018-12-24T03:06:52.180Z,0.00
2018-12-24T03:07:52.207Z,0.00
2018-12-24T03:08:52.243Z,0.00
2018-12-24T03:09:52.278Z,0.00
2018-12-24T03:10:52.319Z,0.00
2018-12-24T03:11:52.352Z,0.00
2018-12-24T03:13:02.255Z,0.00
2018-12-24T03:13:52.425Z,0.00
2018-12-24T03:14:52.461Z,0.00
2018-12-24T03:15:52.498Z,0.00
2018-12-24T03:16:52.532Z,0.00
2018-12-24T03:17:52.572Z,0.00
2018-12-24T03:18:52.606Z,0.00
2018-12-24T03:19:52.642Z,0.00
2018-12-24T03:20:52.677Z,0.00
2018-12-24T03:21:52.717Z,0.00
2018-12-24T03:22:52.750Z,0.00
2018-12-24T03:23:52.788Z,0.00
2018-12-24T03:24:52.829Z,0.00
2018-12-24T03:25:52.978Z,0.00
2018-12-24T03:26:52.894Z,0.00
2018-12-24T03:27:52.940Z,0.00
2018-12-24T03:28:52.968Z,0.00
2018-12-24T03:29:53.004Z,0.00
2018-12-24T03:30:53.042Z,0.00
2018-12-24T03:31:53.097Z,0.00
2018-12-24T03:32:53.112Z,0.00
2018-12-24T03:33:53.152Z,0.00
2018-12-24T03:34:53.194Z,0.00
2018-12-24T03:35:53.221Z,0.00
2018-12-24T03:36:53.260Z,0.00
2018-12-24T03:37:53.296Z,0.00
2018-12-24T03:38:53.331Z,0.00
2018-12-24T03:39:53.367Z,0.00
2018-12-24T03:40:53.400Z,0.00
2018-12-24T03:41:53.437Z,0.00
2018-12-24T03:42:53.475Z,0.00
2018-12-24T03:43:53.509Z,0.00
2018-12-24T03:44:53.546Z,0.00
2018-12-24T03:45:53.584Z,0.00
2018-12-24T03:46:53.616Z,0.00
2018-12-24T03:47:53.653Z,0.00
2018-12-24T03:48:53.698Z,0.00
2018-12-24T03:49:53.726Z,0.00
2018-12-24T03:50:53.768Z,0.00
2018-12-24T03:51:53.798Z,0.00
2018-12-24T03:52:53.836Z,0.00
2018-12-24T03:53:53.871Z,0.00
2018-12-24T03:54:53.907Z,0.00
2018-12-24T03:55:53.943Z,0.00
2018-12-24T03:56:53.982Z,0.00
2018-12-24T03:57:54.014Z,0.00
2018-12-24T03:58:54.053Z,0.00
2018-12-24T03:59:54.087Z,0.00
2018-12-24T04:00:54.122Z,0.00
2018-12-24T04:01:54.156Z,0.00
2018-12-24T04:02:54.197Z,0.00
2018-12-24T04:03:54.235Z,0.00
2018-12-24T04:04:54.274Z,0.00
2018-12-24T04:05:54.310Z,0.00
2018-12-24T04:06:54.342Z,0.00
2018-12-24T04:07:54.378Z,0.00
2018-12-24T04:08:54.413Z,0.00
2018-12-24T04:09:54.456Z,0.00
2018-12-24T04:10:54.490Z,0.00
2018-12-24T04:11:54.522Z,0.00
2018-12-24T04:12:54.565Z,0.00
2018-12-24T04:13:54.591Z,0.00
2018-12-24T04:14:54.627Z,0.00
2018-12-24T04:15:54.665Z,0.00
2018-12-24T04:16:54.701Z,0.00
2018-12-24T04:17:54.736Z,0.00
2018-12-24T04:18:54.781Z,0.00
2018-12-24T04:19:54.816Z,0.00
2018-12-24T04:20:54.847Z,0.00
2018-12-24T04:21:54.881Z,0.00
2018-12-24T04:22:54.921Z,0.00
2018-12-24T04:23:54.956Z,0.00
2018-12-24T04:24:54.997Z,0.00
2018-12-24T04:25:55.025Z,0.00
2018-12-24T04:26:55.067Z,0.00
2018-12-24T04:27:55.098Z,0.00
2018-12-24T04:28:55.134Z,0.00
2018-12-24T04:29:55.171Z,0.00
2018-12-24T04:30:55.206Z,0.00
2018-12-24T04:31:55.244Z,0.00
2018-12-24T04:32:55.284Z,0.00
2018-12-24T04:33:55.318Z,0.00
2018-12-24T04:34:55.353Z,0.00
2018-12-24T04:35:55.536Z,0.00
2018-12-24T04:36:55.428Z,0.00
2018-12-24T04:37:55.460Z,0.00
2018-12-24T04:38:55.526Z,0.00
2018-12-24T04:39:55.540Z,0.00
2018-12-24T04:40:55.567Z,0.00
2018-12-24T04:41:55.605Z,0.00
2018-12-24T04:42:55.641Z,0.00
2018-12-24T04:43:55.685Z,0.00
2018-12-24T04:44:55.714Z,0.00
2018-12-24T04:45:55.749Z,0.00
2018-12-24T04:46:55.785Z,0.00
2018-12-24T04:47:55.825Z,0.00
2018-12-24T04:48:55.860Z,0.00
2018-12-24T04:49:55.895Z,0.00
2018-12-24T04:50:55.931Z,0.00
2018-12-24T04:51:55.967Z,0.00
2018-12-24T04:52:56.002Z,0.00
2018-12-24T04:53:56.039Z,0.00
2018-12-24T04:54:56.076Z,0.00
2018-12-24T04:55:56.111Z,0.00
2018-12-24T04:56:56.160Z,0.00
2018-12-24T04:57:56.184Z,0.00
2018-12-24T04:58:56.221Z,0.00
2018-12-24T04:59:56.257Z,0.00
2018-12-24T05:00:56.294Z,0.00
2018-12-24T05:01:56.335Z,0.00
2018-12-24T05:02:56.369Z,0.00
2018-12-24T05:03:56.408Z,0.00
2018-12-24T05:04:56.439Z,0.00
2018-12-24T05:05:56.474Z,0.00
2018-12-24T05:06:56.510Z,0.00
2018-12-24T05:07:56.549Z,0.00
2018-12-24T05:08:56.583Z,0.00
2018-12-24T05:09:56.619Z,0.00
2018-12-24T05:10:56.666Z,0.00
2018-12-24T05:11:56.694Z,0.00
2018-12-24T05:12:56.731Z,0.00
2018-12-24T05:13:56.766Z,0.00
2018-12-24T05:14:56.802Z,0.00
2018-12-24T05:15:56.844Z,0.00
2018-12-24T05:16:56.875Z,0.00
2018-12-24T05:17:56.911Z,0.00
2018-12-24T05:18:56.950Z,0.00
2018-12-24T05:19:56.983Z,0.00
2018-12-24T05:20:57.017Z,0.00
2018-12-24T05:21:57.055Z,0.00
2018-12-24T05:22:57.090Z,0.00
2018-12-24T05:23:57.128Z,0.00
2018-12-24T05:24:57.263Z,0.00
2018-12-24T05:25:57.199Z,0.00
2018-12-24T05:26:57.236Z,0.00
2018-12-24T05:27:57.273Z,0.00
2018-12-24T05:28:57.307Z,0.00
2018-12-24T05:29:57.344Z,0.00
2018-12-24T05:30:57.386Z,0.00
2018-12-24T05:31:57.446Z,0.00
2018-12-24T05:32:57.454Z,0.00
2018-12-24T05:33:57.491Z,0.00
2018-12-24T05:34:57.527Z,0.00
2018-12-24T05:35:57.565Z,0.00
2018-12-24T05:36:57.602Z,0.00
2018-12-24T05:37:57.645Z,0.00
2018-12-24T05:38:57.675Z,0.00
2018-12-24T05:39:57.709Z,0.00
2018-12-24T05:40:57.747Z,0.00
2018-12-24T05:41:57.782Z,0.00
2018-12-24T05:42:57.818Z,0.00
2018-12-24T05:43:57.856Z,0.00
2018-12-24T05:44:57.890Z,0.00
2018-12-24T05:45:57.927Z,0.00
2018-12-24T05:46:57.965Z,0.00
2018-12-24T05:47:58.001Z,0.00
2018-12-24T05:48:58.036Z,0.00
2018-12-24T05:49:58.071Z,0.00
2018-12-24T05:50:58.112Z,0.00
2018-12-24T05:51:58.145Z,0.00
2018-12-24T05:52:58.190Z,0.00
2018-12-24T05:53:58.217Z,0.00
2018-12-24T05:54:58.253Z,0.00
2018-12-24T05:55:58.290Z,0.00
2018-12-24T05:56:58.325Z,0.00
2018-12-24T05:57:58.363Z,0.00
2018-12-24T05:58:58.399Z,0.00
2018-12-24T05:59:58.435Z,0.00
2018-12-24T06:00:58.472Z,0.00
2018-12-24T06:01:58.511Z,0.00
2018-12-24T06:02:58.545Z,0.00
2018-12-24T06:03:58.581Z,0.00
2018-12-24T06:04:58.616Z,0.00
2018-12-24T06:05:58.654Z,0.00
2018-12-24T06:06:58.691Z,0.00
2018-12-24T06:07:58.727Z,0.00
2018-12-24T06:08:58.764Z,0.00
2018-12-24T06:09:58.807Z,0.00
2018-12-24T06:10:58.837Z,0.00
2018-12-24T06:11:58.871Z,0.00
2018-12-24T06:12:58.907Z,0.00
2018-12-24T06:13:58.948Z,0.00
2018-12-24T06:14:58.984Z,0.00
2018-12-24T06:15:59.020Z,0.00
2018-12-24T06:16:59.054Z,0.00
2018-12-24T06:17:59.099Z,0.00
2018-12-24T06:18:59.126Z,0.00
2018-12-24T06:19:59.165Z,0.00
2018-12-24T06:20:59.198Z,0.00
2018-12-24T06:21:59.233Z,0.00
2018-12-24T06:22:59.275Z,0.00
2018-12-24T06:23:59.308Z,0.00
2018-12-24T06:24:59.341Z,0.00
2018-12-24T06:25:59.380Z,0.00
2018-12-24T06:26:59.436Z,0.00
2018-12-24T06:27:59.453Z,0.00
2018-12-24T06:28:59.487Z,0.00
2018-12-24T06:29:59.526Z,0.00
2018-12-24T06:30:59.559Z,0.00
2018-12-24T06:31:59.597Z,0.00
2018-12-24T06:32:59.632Z,0.00
2018-12-24T06:33:59.668Z,0.00
2018-12-24T06:34:59.725Z,0.00
2018-12-24T06:35:59.791Z,0.00
2018-12-24T06:36:59.777Z,0.00
2018-12-24T06:37:59.812Z,0.00
2018-12-24T06:38:59.852Z,0.00
2018-12-24T06:39:59.886Z,0.00
2018-12-24T06:41:00.024Z,0.00
2018-12-24T06:41:59.959Z,0.00
2018-12-24T06:43:00.098Z,0.00
2018-12-24T06:44:06.728Z,0.00
2018-12-24T06:45:00.086Z,0.00
2018-12-24T06:46:00.110Z,0.00
2018-12-24T06:47:00.150Z,0.00
2018-12-24T06:48:00.178Z,0.00
2018-12-24T06:49:00.214Z,0.00
2018-12-24T06:50:00.249Z,0.00
2018-12-24T06:51:00.285Z,0.00
2018-12-24T06:52:00.324Z,0.00
2018-12-24T06:53:00.360Z,0.00
2018-12-24T06:54:00.396Z,0.00
2018-12-24T06:55:00.432Z,0.00
2018-12-24T06:56:00.467Z,0.00
2018-12-24T06:57:00.504Z,0.00
2018-12-24T06:58:00.541Z,0.00
2018-12-24T06:59:00.577Z,0.00
2018-12-24T07:00:00.612Z,0.00
2018-12-24T07:01:00.648Z,0.00
2018-12-24T07:02:00.685Z,0.00
2018-12-24T07:03:00.722Z,0.00
2018-12-24T07:04:00.773Z,0.00
2018-12-24T07:05:00.793Z,0.00
2018-12-24T07:06:00.830Z,0.00
2018-12-24T07:07:00.865Z,0.00
2018-12-24T07:08:00.903Z,0.00
2018-12-24T07:09:00.988Z,0.00
2018-12-24T07:10:00.977Z,0.00
2018-12-24T07:11:01.013Z,0.00
2018-12-24T07:12:01.049Z,0.00
2018-12-24T07:13:01.084Z,0.00
2018-12-24T07:14:01.144Z,0.00
2018-12-24T07:15:01.166Z,0.00
2018-12-24T07:16:01.195Z,0.00
2018-12-24T07:17:01.231Z,0.00
2018-12-24T07:18:01.275Z,0.00
2018-12-24T07:19:01.304Z,0.00
2018-12-24T07:20:01.342Z,0.00
2018-12-24T07:21:01.376Z,0.00
2018-12-24T07:22:01.413Z,0.00
2018-12-24T07:23:01.449Z,0.00
2018-12-24T07:24:01.485Z,0.00
2018-12-24T07:25:01.529Z,0.00
2018-12-24T07:26:01.563Z,0.00
2018-12-24T07:27:01.600Z,0.00
2018-12-24T07:28:01.632Z,0.00
2018-12-24T07:29:01.667Z,0.00
2018-12-24T07:30:01.746Z,0.00
2018-12-24T07:31:01.739Z,0.00
2018-12-24T07:32:01.775Z,0.00
2018-12-24T07:33:01.822Z,0.00
2018-12-24T07:34:01.847Z,5.63
2018-12-24T07:35:01.886Z,5.63
2018-12-24T07:36:01.924Z,5.63
2018-12-24T07:37:01.956Z,5.63
2018-12-24T07:38:03.121Z,5.63
2018-12-24T07:39:02.030Z,5.63
2018-12-24T07:40:02.066Z,11.25
2018-12-24T07:41:02.101Z,11.25
2018-12-24T07:42:02.238Z,11.25
2018-12-24T07:43:02.175Z,16.88
2018-12-24T07:44:02.211Z,16.88
2018-12-24T07:45:02.248Z,16.88
2018-12-24T07:46:02.285Z,22.50
2018-12-24T07:47:02.320Z,22.50
2018-12-24T07:48:02.358Z,22.50
2018-12-24T07:49:02.393Z,22.50
2018-12-24T07:50:02.437Z,22.50
2018-12-24T07:51:02.466Z,22.50
2018-12-24T07:52:02.506Z,28.13
2018-12-24T07:53:02.545Z,28.13
2018-12-24T07:54:02.584Z,28.13
2018-12-24T07:55:02.613Z,28.13
2018-12-24T07:56:02.650Z,28.13
2018-12-24T07:57:02.694Z,33.75
2018-12-24T07:58:02.721Z,33.75
2018-12-24T07:59:02.768Z,33.75
2018-12-24T08:00:02.795Z,39.38
2018-12-24T08:01:02.832Z,39.38
2018-12-24T08:02:02.868Z,39.38
2018-12-24T08:03:02.905Z,39.38
2018-12-24T08:04:02.942Z,39.38
2018-12-24T08:05:02.977Z,39.38
2018-12-24T08:06:03.014Z,39.38
2018-12-24T08:07:03.052Z,39.38
2018-12-24T08:08:03.087Z,45.00
2018-12-24T08:09:03.121Z,45.00
2018-12-24T08:10:03.159Z,45.00
2018-12-24T08:11:03.197Z,45.00
2018-12-24T08:12:03.234Z,50.63
2018-12-24T08:13:03.370Z,50.63
2018-12-24T08:14:03.306Z,50.63
2018-12-24T08:15:03.342Z,56.25
2018-12-24T08:16:03.378Z,56.25
2018-12-24T08:17:03.415Z,56.25
2018-12-24T08:18:03.461Z,50.63
2018-12-24T08:19:03.489Z,50.63
2018-12-24T08:20:03.527Z,50.63
2018-12-24T08:21:03.563Z,50.63
2018-12-24T08:22:03.598Z,56.25
2018-12-24T08:23:03.637Z,56.25
2018-12-24T08:24:03.687Z,56.25
2018-12-24T08:25:03.706Z,56.25
2018-12-24T08:26:03.744Z,56.25
2018-12-24T08:27:03.783Z,56.25
2018-12-24T08:28:03.820Z,61.88
2018-12-24T08:29:03.857Z,61.88
2018-12-24T08:30:03.892Z,67.50
2018-12-24T08:31:03.930Z,67.50
2018-12-24T08:32:03.971Z,67.50
2018-12-24T08:33:04.009Z,67.50
2018-12-24T08:34:04.044Z,61.88
2018-12-24T08:35:04.075Z,56.25
2018-12-24T08:36:04.113Z,61.88
2018-12-24T08:37:04.148Z,67.50
2018-12-24T08:38:04.184Z,84.38
2018-12-24T08:39:04.238Z,78.75
2018-12-24T08:40:04.258Z,78.75
2018-12-24T08:41:04.303Z,78.75
2018-12-24T08:42:04.332Z,67.50
2018-12-24T08:43:04.369Z,61.88
2018-12-24T08:44:04.405Z,61.88
2018-12-24T08:45:04.450Z,61.88
2018-12-24T08:46:04.478Z,67.50
2018-12-24T08:47:04.525Z,61.88
2018-12-24T08:48:04.552Z,56.25
2018-12-24T08:49:04.590Z,56.25
2018-12-24T08:50:04.624Z,50.63
2018-12-24T08:51:04.661Z,50.63
2018-12-24T08:52:04.699Z,61.88
2018-12-24T08:53:04.737Z,67.50
2018-12-24T08:54:04.780Z,67.50
2018-12-24T08:55:04.811Z,73.13
2018-12-24T08:56:04.848Z,73.13
2018-12-24T08:57:04.893Z,78.75
2018-12-24T08:58:04.921Z,78.75
2018-12-24T08:59:04.955Z,84.38
2018-12-24T09:00:04.995Z,84.38
2018-12-24T09:01:05.032Z,84.38
2018-12-24T09:02:05.068Z,78.75
2018-12-24T09:03:05.112Z,78.75
2018-12-24T09:04:05.144Z,78.75
2018-12-24T09:05:05.193Z,78.75
2018-12-24T09:06:05.214Z,73.13
2018-12-24T09:07:05.263Z,90.00
2018-12-24T09:08:05.286Z,95.63
2018-12-24T09:09:05.325Z,101.25
2018-12-24T09:10:05.459Z,101.25
2018-12-24T09:11:05.406Z,101.25
2018-12-24T09:12:05.444Z,101.25
2018-12-24T09:13:05.472Z,101.25
2018-12-24T09:14:05.507Z,101.25
2018-12-24T09:15:05.553Z,101.25
2018-12-24T09:16:05.582Z,95.63
2018-12-24T09:17:05.618Z,84.38
2018-12-24T09:18:05.654Z,73.13
2018-12-24T09:19:05.691Z,67.50
2018-12-24T09:20:05.730Z,61.88
2018-12-24T09:21:05.771Z,67.50
2018-12-24T09:22:05.804Z,67.50
2018-12-24T09:23:05.842Z,67.50
2018-12-24T09:24:05.877Z,67.50
2018-12-24T09:25:05.920Z,73.13
2018-12-24T09:26:05.957Z,73.13
2018-12-24T09:27:05.993Z,78.75
2018-12-24T09:28:06.023Z,90.00
2018-12-24T09:29:06.064Z,101.25
2018-12-24T09:30:06.097Z,90.00
2018-12-24T09:31:06.141Z,101.25
2018-12-24T09:32:06.169Z,112.50
2018-12-24T09:33:06.217Z,90.00
2018-12-24T09:34:06.258Z,95.63
2018-12-24T09:35:06.282Z,106.88
2018-12-24T09:36:06.469Z,123.75
2018-12-24T09:37:06.355Z,123.75
2018-12-24T09:38:06.401Z,101.25
2018-12-24T09:39:06.429Z,95.63
2018-12-24T09:40:06.465Z,90.00
2018-12-24T09:41:06.500Z,90.00
2018-12-24T09:42:06.548Z,95.63
2018-12-24T09:43:06.575Z,101.25
2018-12-24T09:44:06.619Z,101.25
2018-12-24T09:45:06.654Z,84.38
2018-12-24T09:46:06.693Z,67.50
2018-12-24T09:47:06.721Z,73.13
2018-12-24T09:48:06.767Z,73.13
2018-12-24T09:49:06.794Z,67.50
2018-12-24T09:50:06.833Z,67.50
2018-12-24T09:51:06.868Z,73.13
2018-12-24T09:52:06.905Z,67.50
2018-12-24T09:53:06.947Z,61.88
2018-12-24T09:54:06.979Z,50.63
2018-12-24T09:55:07.017Z,56.25
2018-12-24T09:56:07.054Z,67.50
2018-12-24T09:57:07.090Z,56.25
2018-12-24T09:58:07.136Z,45.00
2018-12-24T09:59:07.163Z,50.63
2018-12-24T10:00:07.208Z,50.63
2018-12-24T10:01:07.236Z,45.00
2018-12-24T10:02:07.294Z,45.00
2018-12-24T10:03:07.310Z,45.00
2018-12-24T10:04:07.347Z,50.63
2018-12-24T10:05:07.386Z,61.88
2018-12-24T10:06:07.422Z,67.50
2018-12-24T10:07:07.458Z,67.50
2018-12-24T10:08:07.494Z,73.13
2018-12-24T10:09:07.540Z,73.13
2018-12-24T10:10:07.568Z,78.75
2018-12-24T10:11:07.604Z,84.38
2018-12-24T10:12:07.642Z,78.75
2018-12-24T10:13:07.679Z,78.75
2018-12-24T10:14:07.728Z,84.38
2018-12-24T10:15:08.237Z,78.75
2018-12-24T10:16:07.787Z,78.75
2018-12-24T10:17:07.832Z,90.00
2018-12-24T10:18:07.862Z,90.00
2018-12-24T10:19:07.903Z,95.63
2018-12-24T10:20:07.938Z,112.50
2018-12-24T10:21:07.972Z,112.50
2018-12-24T10:22:08.010Z,95.63
2018-12-24T10:23:08.046Z,84.38
2018-12-24T10:24:08.088Z,78.75
2018-12-24T10:25:08.119Z,78.75
2018-12-24T10:26:08.156Z,73.13
2018-12-24T10:27:08.195Z,73.13
2018-12-24T10:28:08.240Z,67.50
2018-12-24T10:29:08.267Z,61.88
2018-12-24T10:30:08.311Z,61.88
2018-12-24T10:31:08.341Z,67.50
2018-12-24T10:32:08.379Z,73.13
2018-12-24T10:33:08.427Z,73.13
2018-12-24T10:34:08.451Z,73.13
2018-12-24T10:35:08.487Z,78.75
2018-12-24T10:36:08.526Z,78.75
2018-12-24T10:37:08.561Z,90.00
2018-12-24T10:38:08.602Z,95.63
2018-12-24T10:39:08.636Z,101.25
2018-12-24T10:40:08.861Z,90.00
2018-12-24T10:41:08.721Z,106.88
2018-12-24T10:42:08.747Z,84.38
2018-12-24T10:43:08.791Z,67.50
2018-12-24T10:44:08.830Z,50.63
2018-12-24T10:45:16.255Z,39.38
2018-12-24T10:46:08.903Z,39.38
2018-12-24T10:47:08.934Z,50.63
2018-12-24T10:48:08.968Z,56.25
2018-12-24T10:49:09.003Z,67.50
2018-12-24T10:50:09.041Z,67.50
2018-12-24T10:51:09.077Z,67.50
2018-12-24T10:52:09.115Z,73.13
2018-12-24T10:53:09.154Z,84.38
2018-12-24T10:54:09.186Z,84.38
2018-12-24T10:55:09.226Z,73.13
2018-12-24T10:56:09.265Z,61.88
2018-12-24T10:57:09.312Z,67.50
2018-12-24T10:58:09.334Z,61.88
2018-12-24T10:59:09.379Z,61.88
2018-12-24T11:00:09.409Z,56.25
2018-12-24T11:01:09.444Z,56.25
2018-12-24T11:02:09.480Z,56.25
2018-12-24T11:03:09.516Z,61.88
2018-12-24T11:04:09.552Z,67.50
2018-12-24T11:05:09.588Z,73.13
2018-12-24T11:06:09.636Z,73.13
2018-12-24T11:07:09.669Z,73.13
2018-12-24T11:08:09.699Z,73.13
2018-12-24T11:09:09.734Z,73.13
2018-12-24T11:10:09.771Z,78.75
2018-12-24T11:11:09.900Z,90.00
2018-12-24T11:12:09.844Z,90.00
2018-12-24T11:13:09.880Z,90.00
2018-12-24T11:14:09.928Z,90.00
2018-12-24T11:15:09.953Z,90.00
2018-12-24T11:16:09.992Z,95.63
2018-12-24T11:17:10.025Z,101.25
2018-12-24T11:18:10.063Z,118.13
2018-12-24T11:19:10.099Z,129.38
2018-12-24T11:20:10.135Z,129.38
2018-12-24T11:21:10.178Z,118.13
2018-12-24T11:22:10.227Z,112.50
2018-12-24T11:23:10.244Z,106.88
2018-12-24T11:24:10.279Z,118.13
2018-12-24T11:25:10.315Z,118.13
2018-12-24T11:26:10.352Z,135.00
2018-12-24T11:27:10.392Z,146.25
2018-12-24T11:28:10.425Z,151.88
2018-12-24T11:29:10.463Z,151.88
2018-12-24T11:30:10.499Z,163.13
2018-12-24T11:31:10.534Z,168.75
2018-12-24T11:32:10.571Z,151.88
2018-12-24T11:33:10.607Z,146.25
2018-12-24T11:34:10.643Z,140.63
2018-12-24T11:35:10.681Z,135.00
2018-12-24T11:36:10.720Z,135.00
2018-12-24T11:37:10.752Z,123.75
2018-12-24T11:38:10.796Z,135.00
2018-12-24T11:39:10.824Z,129.38
2018-12-24T11:40:10.862Z,118.13
2018-12-24T11:41:10.899Z,112.50
2018-12-24T11:42:10.942Z,129.38
2018-12-24T11:43:10.972Z,135.00
2018-12-24T11:44:11.011Z,135.00
2018-12-24T11:45:11.044Z,140.63
2018-12-24T11:46:11.083Z,151.88
2018-12-24T11:47:11.119Z,146.25
2018-12-24T11:48:11.157Z,151.88
2018-12-24T11:49:11.200Z,157.50
2018-12-24T11:50:11.229Z,140.63
2018-12-24T11:51:11.266Z,146.25
2018-12-24T11:52:11.301Z,163.13
2018-12-24T11:53:11.339Z,163.13
2018-12-24T11:54:11.374Z,151.88
2018-12-24T11:55:11.410Z,163.13
2018-12-24T11:56:11.450Z,151.88
2018-12-24T11:57:11.485Z,146.25
2018-12-24T11:58:13.283Z,151.88
2018-12-24T11:59:11.557Z,163.13
2018-12-24T12:00:11.645Z,163.13
2018-12-24T12:01:11.630Z,163.13
2018-12-24T12:02:11.675Z,157.50
2018-12-24T12:03:12.802Z,151.88
2018-12-24T12:04:11.743Z,140.63
2018-12-24T12:05:11.777Z,135.00
2018-12-24T12:06:19.499Z,135.00
2018-12-24T12:07:11.852Z,101.25
2018-12-24T12:08:11.887Z,101.25
2018-12-24T12:09:11.926Z,95.63
2018-12-24T12:10:11.961Z,101.25
2018-12-24T12:11:12.000Z,101.25
2018-12-24T12:12:12.036Z,112.50
2018-12-24T12:13:12.073Z,118.13
2018-12-24T12:14:12.108Z,123.75
2018-12-24T12:15:13.076Z,123.75
2018-12-24T12:16:12.188Z,129.38
2018-12-24T12:17:12.219Z,135.00
2018-12-24T12:18:12.255Z,129.38
2018-12-24T12:19:12.343Z,118.13
2018-12-24T12:20:12.331Z,118.13
2018-12-24T12:21:12.369Z,112.50
2018-12-24T12:22:12.407Z,123.75
2018-12-24T12:23:12.457Z,123.75
2018-12-24T12:24:12.479Z,106.88
2018-12-24T12:25:12.519Z,101.25
2018-12-24T12:26:12.550Z,101.25
2018-12-24T12:27:12.592Z,101.25
2018-12-24T12:28:12.634Z,101.25
2018-12-24T12:29:12.663Z,106.88
2018-12-24T12:30:12.700Z,118.13
2018-12-24T12:31:12.735Z,123.75
2018-12-24T12:32:12.774Z,135.00
2018-12-24T12:33:12.808Z,118.13
2018-12-24T12:34:12.845Z,95.63
2018-12-24T12:35:12.880Z,90.00
2018-12-24T12:36:12.918Z,90.00
2018-12-24T12:37:13.033Z,101.25
2018-12-24T12:38:12.990Z,101.25
2018-12-24T12:39:13.029Z,101.25
2018-12-24T12:40:13.079Z,106.88
2018-12-24T12:41:13.101Z,90.00
2018-12-24T12:42:13.139Z,84.38
2018-12-24T12:43:15.395Z,90.00
2018-12-24T12:44:13.217Z,90.00
2018-12-24T12:45:13.244Z,101.25
2018-12-24T12:46:13.287Z,101.25
2018-12-24T12:47:13.319Z,106.88
2018-12-24T12:48:13.364Z,118.13
2018-12-24T12:49:13.394Z,118.13
2018-12-24T12:50:13.439Z,112.50
2018-12-24T12:51:13.468Z,106.88
2018-12-24T12:52:13.514Z,106.88
2018-12-24T12:53:13.549Z,118.13
2018-12-24T12:54:13.576Z,123.75
2018-12-24T12:55:13.611Z,123.75
2018-12-24T12:56:13.649Z,118.13
2018-12-24T12:57:13.682Z,123.75
2018-12-24T12:58:13.720Z,129.38
2018-12-24T12:59:13.756Z,135.00
2018-12-24T13:00:13.792Z,140.63
2018-12-24T13:01:13.828Z,123.75
2018-12-24T13:02:13.865Z,112.50
2018-12-24T13:03:13.903Z,101.25
2018-12-24T13:04:13.942Z,106.88